createdAt,value
2022-07-27T00:04:39.793Z,82.10
2022-07-27T00:09:42.125Z,82.50
2022-07-27T00:14:44.588Z,82.50
2022-07-27T00:19:46.710Z,82.70
2022-07-27T00:24:49.509Z,83.10
2022-07-27T00:29:51.720Z,83.30
2022-07-27T00:34:53.903Z,84.20
2022-07-27T00:39:56.916Z,84.30
2022-07-27T00:44:59.364Z,83.90
2022-07-27T00:50:02.066Z,83.60
2022-07-27T00:55:05.349Z,83.70
2022-07-27T01:00:08.399Z,85.30
2022-07-27T01:05:10.685Z,85.80
2022-07-27T01:10:16.931Z,85.30
2022-07-27T01:15:19.619Z,84.80
2022-07-27T01:20:21.924Z,86.10
2022-07-27T01:25:24.189Z,85.40
2022-07-27T01:30:26.437Z,85.30
2022-07-27T01:35:29.610Z,85.10
2022-07-27T01:40:31.994Z,85.20
2022-07-27T01:45:34.509Z,85.30
2022-07-27T01:50:36.898Z,85.30
2022-07-27T01:55:39.468Z,85.50
2022-07-27T02:00:42.259Z,85.70
2022-07-27T02:05:44.694Z,85.30
2022-07-27T02:11:06.940Z,85.40
2022-07-27T02:16:09.710Z,85.60
2022-07-27T02:21:19.116Z,85.80
2022-07-27T02:26:21.533Z,85.60
2022-07-27T02:31:23.800Z,85.80
2022-07-27T02:36:28.998Z,85.70
2022-07-27T02:41:31.201Z,85.90
2022-07-27T02:46:33.452Z,85.90
2022-07-27T02:51:36.232Z,85.90
2022-07-27T02:56:41.679Z,87.10
2022-07-27T03:01:44.414Z,88.10
2022-07-27T03:06:46.882Z,88.40
2022-07-27T03:11:49.033Z,92.80
2022-07-27T03:16:51.341Z,91.60
2022-07-27T03:21:53.593Z,90.60
2022-07-27T03:26:55.854Z,92.60
2022-07-27T03:31:58.042Z,92.50
2022-07-27T03:37:00.229Z,91.40
2022-07-27T03:42:02.504Z,92.90
2022-07-27T03:47:04.965Z,91.80
2022-07-27T03:52:07.218Z,91.40
2022-07-27T03:57:09.407Z,90.70
2022-07-27T04:02:11.741Z,91.50
2022-07-27T04:07:13.973Z,92.80
2022-07-27T04:12:17.291Z,92.60
2022-07-27T04:17:55.179Z,91.40
2022-07-27T04:22:44.264Z,93.20
2022-07-27T04:27:46.941Z,93.20
2022-07-27T04:32:49.120Z,92.00
2022-07-27T04:37:58.342Z,91.00
2022-07-27T04:43:03.812Z,90.60
2022-07-27T04:48:08.342Z,90.40
2022-07-27T04:53:11.702Z,89.80
2022-07-27T04:58:15.005Z,88.20
2022-07-27T05:03:17.171Z,90.10
2022-07-27T05:08:20.708Z,89.20
2022-07-27T05:13:22.920Z,88.20
2022-07-27T05:18:25.824Z,90.10
2022-07-27T05:23:28.132Z,90.10
2022-07-27T05:28:30.830Z,90.30
2022-07-27T05:33:33.021Z,87.80
2022-07-27T05:38:39.289Z,87.40
2022-07-27T05:43:41.611Z,81.90
2022-07-27T05:48:43.828Z,76.10
2022-07-27T05:53:45.963Z,74.30
2022-07-27T05:58:48.047Z,75.60
2022-07-27T06:03:50.269Z,75.80
2022-07-27T06:08:52.426Z,77.40
2022-07-27T06:13:55.950Z,78.50
2022-07-27T06:18:58.109Z,79.00
2022-07-27T06:24:00.260Z,77.00
2022-07-27T06:29:02.346Z,75.30
2022-07-27T06:34:08.164Z,73.50
2022-07-27T06:39:14.478Z,70.90
2022-07-27T06:44:16.975Z,71.30
2022-07-27T06:49:19.190Z,71.10
2022-07-27T06:54:22.344Z,69.40
2022-07-27T06:59:24.495Z,72.10
2022-07-27T07:04:45.325Z,74.60
2022-07-27T07:09:47.503Z,74.20
2022-07-27T07:14:49.665Z,72.00
2022-07-27T07:19:51.784Z,72.30
2022-07-27T07:24:53.920Z,72.20
2022-07-27T07:29:56.283Z,71.00
2022-07-27T07:34:58.487Z,68.50
2022-07-27T07:40:12.968Z,67.00
2022-07-27T07:45:24.442Z,68.60
2022-07-27T07:50:27.640Z,66.00
2022-07-27T07:55:30.033Z,71.10
2022-07-27T08:00:33.205Z,71.30
2022-07-27T08:05:35.440Z,69.70
2022-07-27T08:10:37.825Z,73.00
2022-07-27T08:15:40.095Z,70.90
2022-07-27T08:20:42.263Z,69.80
2022-07-27T08:25:44.452Z,72.10
2022-07-27T08:30:46.797Z,71.60
2022-07-27T08:35:48.991Z,69.30
2022-07-27T08:40:51.312Z,68.40
2022-07-27T08:45:56.842Z,66.10
2022-07-27T08:50:59.198Z,66.50
2022-07-27T08:56:02.028Z,66.30
2022-07-27T09:01:04.481Z,63.10
2022-07-27T09:06:06.801Z,64.30
2022-07-27T09:11:15.199Z,65.20
2022-07-27T09:16:19.734Z,64.40
2022-07-27T09:21:23.806Z,65.10
2022-07-27T09:26:32.573Z,65.60
2022-07-27T09:36:55.796Z,69.20
2022-07-27T09:42:01.186Z,66.90
2022-07-27T09:47:27.486Z,64.40
2022-07-27T09:52:30.751Z,61.20
2022-07-27T09:57:54.729Z,61.90
2022-07-27T10:02:59.237Z,60.20
2022-07-27T10:08:01.429Z,60.30
2022-07-27T10:13:05.014Z,60.50
2022-07-27T10:18:33.520Z,61.40
2022-07-27T10:23:40.103Z,61.80
2022-07-27T10:29:18.275Z,61.50
2022-07-27T10:40:17.306Z,60.00
2022-07-27T10:45:19.580Z,59.00
2022-07-27T10:50:25.863Z,58.50
2022-07-27T11:11:18.482Z,57.60
2022-07-27T11:16:24.478Z,58.40
2022-07-27T11:21:34.270Z,58.50
2022-07-27T11:26:41.061Z,57.60
2022-07-27T11:31:55.199Z,55.40
2022-07-27T11:37:01.952Z,55.70
2022-07-27T11:42:11.907Z,55.00
2022-07-27T11:47:19.783Z,54.80
2022-07-27T11:52:23.638Z,53.50
2022-07-27T11:57:32.126Z,54.50
2022-07-27T12:02:34.368Z,55.60
2022-07-27T12:07:37.238Z,56.30
2022-07-27T12:12:39.425Z,55.10
2022-07-27T12:17:43.153Z,55.50
2022-07-27T12:33:25.849Z,55.00
2022-07-27T12:38:50.253Z,56.30
2022-07-27T12:44:13.445Z,57.70
2022-07-27T12:49:16.774Z,59.10
2022-07-27T12:54:19.344Z,55.40
2022-07-27T12:59:23.445Z,55.00
2022-07-27T13:04:26.054Z,54.60
2022-07-27T13:10:01.800Z,53.10
2022-07-27T13:14:50.608Z,54.20
2022-07-27T13:19:52.870Z,58.70
2022-07-27T13:24:55.068Z,60.10
2022-07-27T13:29:59.793Z,61.40
2022-07-27T13:35:02.334Z,61.00
2022-07-27T13:40:05.490Z,61.50
2022-07-27T13:45:10.947Z,60.90
2022-07-27T13:50:18.819Z,62.90
2022-07-27T13:55:26.160Z,62.20
2022-07-27T14:00:30.279Z,61.70
2022-07-27T14:05:32.465Z,61.60
2022-07-27T14:10:41.612Z,61.00
2022-07-27T14:15:50.364Z,63.10
2022-07-27T14:20:56.793Z,62.90
2022-07-27T14:26:00.530Z,62.90
2022-07-27T14:31:05.016Z,62.20
2022-07-27T14:36:09.151Z,63.30
2022-07-27T14:41:11.683Z,61.10
2022-07-27T14:46:13.938Z,57.90
2022-07-27T14:51:16.656Z,57.20
2022-07-27T14:56:18.865Z,56.50
2022-07-27T15:01:21.052Z,57.10
2022-07-27T15:06:23.412Z,58.90
2022-07-27T15:11:25.708Z,57.20
2022-07-27T15:16:27.922Z,56.60
2022-07-27T15:21:30.136Z,56.10
2022-07-27T15:26:32.976Z,57.50
2022-07-27T15:31:35.213Z,56.00
2022-07-27T15:36:43.842Z,59.50
2022-07-27T15:41:48.511Z,60.80
2022-07-27T15:46:50.751Z,62.90
2022-07-27T15:51:53.088Z,64.50
2022-07-27T15:56:56.465Z,63.60
2022-07-27T16:01:58.683Z,64.00
2022-07-27T16:07:01.215Z,60.90
2022-07-27T16:12:03.472Z,62.40
2022-07-27T16:17:05.703Z,62.60
2022-07-27T16:22:08.237Z,62.20
2022-07-27T16:27:10.579Z,60.60
2022-07-27T16:32:12.747Z,60.00
2022-07-27T16:37:14.901Z,59.50
2022-07-27T16:42:17.036Z,60.30
2022-07-27T16:47:19.183Z,62.70
2022-07-27T16:52:21.363Z,63.60
2022-07-27T16:57:24.554Z,62.30
2022-07-27T17:02:30.400Z,64.20
2022-07-27T17:07:32.902Z,63.60
2022-07-27T17:12:39.263Z,63.00
2022-07-27T17:17:41.659Z,62.70
2022-07-27T17:22:43.842Z,61.80
2022-07-27T17:27:46.798Z,62.70
2022-07-27T17:32:48.959Z,63.00
2022-07-27T17:38:06.029Z,63.60
2022-07-27T17:43:09.174Z,64.20
2022-07-27T17:48:11.492Z,65.40
2022-07-27T17:53:13.596Z,65.80
2022-07-27T17:58:15.683Z,66.70
2022-07-27T18:03:17.801Z,66.20
2022-07-27T18:08:19.983Z,65.40
2022-07-27T18:13:22.231Z,64.30
2022-07-27T18:18:26.690Z,63.50
2022-07-27T18:23:30.658Z,63.80
2022-07-27T18:28:39.436Z,64.50
2022-07-27T18:33:45.860Z,66.10
2022-07-27T18:38:49.921Z,65.80
2022-07-27T18:43:52.192Z,65.50
2022-07-27T18:48:55.035Z,67.40
2022-07-27T18:53:57.219Z,66.90
2022-07-27T18:58:59.323Z,66.00
2022-07-27T19:04:02.002Z,66.40
2022-07-27T19:09:05.426Z,66.60
2022-07-27T19:14:08.192Z,68.60
2022-07-27T19:19:15.747Z,67.90
2022-07-27T19:24:20.168Z,67.20
2022-07-27T19:29:22.768Z,68.20
2022-07-27T19:34:25.365Z,68.70
2022-07-27T19:39:27.933Z,68.90
2022-07-27T19:44:50.027Z,69.40
2022-07-27T19:49:52.311Z,70.00
2022-07-27T19:54:54.484Z,69.70
2022-07-27T19:59:57.032Z,69.70
2022-07-27T20:04:59.294Z,70.30
2022-07-27T20:10:01.462Z,71.00
2022-07-27T20:15:04.795Z,72.50
2022-07-27T20:20:08.743Z,73.90
2022-07-27T20:25:11.032Z,73.30
2022-07-27T20:30:16.210Z,73.90
2022-07-27T20:35:19.094Z,74.00
2022-07-27T20:40:21.363Z,75.60
2022-07-27T20:45:23.905Z,76.80
2022-07-27T20:50:26.524Z,76.70
2022-07-27T20:55:28.749Z,75.80
2022-07-27T21:00:30.954Z,75.00
2022-07-27T21:05:33.864Z,75.00
2022-07-27T21:10:36.091Z,75.20
2022-07-27T21:15:38.285Z,74.50
2022-07-27T21:20:40.523Z,75.10
2022-07-27T21:25:43.888Z,74.80
2022-07-27T21:30:46.338Z,74.30
2022-07-27T21:35:48.535Z,75.50
2022-07-27T21:40:50.782Z,75.80
2022-07-27T21:45:53.071Z,77.80
2022-07-27T21:50:55.583Z,78.60
2022-07-27T21:55:58.060Z,78.60
2022-07-27T22:01:00.601Z,79.00
2022-07-27T22:06:04.563Z,80.10
2022-07-27T22:11:07.320Z,78.50
2022-07-27T22:16:12.461Z,78.10
2022-07-27T22:21:14.818Z,80.60
2022-07-27T22:26:17.416Z,80.90
2022-07-27T22:31:22.478Z,80.10
2022-07-27T22:36:25.478Z,78.50
2022-07-27T22:41:27.770Z,78.40
2022-07-27T22:46:30.137Z,77.10
2022-07-27T22:51:49.823Z,78.00
2022-07-27T22:56:54.779Z,79.60
2022-07-27T23:01:57.795Z,82.20
2022-07-27T23:07:00.472Z,82.30
2022-07-27T23:12:02.799Z,81.20
2022-07-27T23:17:04.937Z,83.10
2022-07-27T23:22:07.211Z,85.60
2022-07-27T23:27:13.772Z,83.00
2022-07-27T23:32:15.967Z,83.10
2022-07-27T23:37:18.157Z,82.70
2022-07-27T23:42:20.420Z,82.10
2022-07-27T23:47:23.075Z,81.40
2022-07-27T23:52:25.582Z,81.20
2022-07-27T23:57:27.964Z,81.00
